createdAt,value
2024-04-13T00:00:30.274Z,0
2024-04-13T00:01:30.432Z,0
2024-04-13T00:02:30.541Z,0
2024-04-13T00:03:30.660Z,0
2024-04-13T00:04:30.779Z,0
2024-04-13T00:05:30.881Z,0
2024-04-13T00:06:31.073Z,0
2024-04-13T00:07:31.119Z,0
2024-04-13T00:08:31.283Z,0
2024-04-13T00:09:31.456Z,0
2024-04-13T00:10:31.526Z,0
2024-04-13T00:11:31.687Z,0
2024-04-13T00:12:31.921Z,0
2024-04-13T00:13:31.978Z,0
2024-04-13T00:14:32.131Z,0
2024-04-13T00:15:32.370Z,0
2024-04-13T00:16:32.402Z,0
2024-04-13T00:17:32.547Z,0
2024-04-13T00:18:32.703Z,0
2024-04-13T00:19:32.840Z,0
2024-04-13T00:20:32.943Z,0
2024-04-13T00:21:33.107Z,0
2024-04-13T00:22:33.203Z,0
2024-04-13T00:23:33.385Z,0
2024-04-13T00:24:33.530Z,0
2024-04-13T00:25:33.556Z,0
2024-04-13T00:26:33.704Z,0
2024-04-13T00:27:33.894Z,0
2024-04-13T00:28:33.970Z,0
2024-04-13T00:29:34.126Z,0
2024-04-13T00:30:34.334Z,0
2024-04-13T00:31:34.472Z,0
2024-04-13T00:32:34.589Z,0
2024-04-13T00:33:34.713Z,0
2024-04-13T00:34:34.785Z,0
2024-04-13T00:35:34.938Z,0
2024-04-13T00:36:35.100Z,0
2024-04-13T00:37:35.190Z,0
2024-04-13T00:38:35.339Z,0
2024-04-13T00:39:35.574Z,0
2024-04-13T00:40:35.534Z,0
2024-04-13T00:41:35.662Z,0
2024-04-13T00:42:35.757Z,0
2024-04-13T00:43:35.887Z,0
2024-04-13T00:44:35.984Z,0
2024-04-13T00:45:36.158Z,0
2024-04-13T00:46:36.293Z,0
2024-04-13T00:47:36.505Z,0
2024-04-13T00:48:36.612Z,0
2024-04-13T00:49:36.690Z,0
2024-04-13T00:50:36.741Z,0
2024-04-13T00:51:36.938Z,0
2024-04-13T00:52:36.997Z,0
2024-04-13T00:53:37.149Z,0
2024-04-13T00:54:37.252Z,0
2024-04-13T00:55:37.349Z,0
2024-04-13T00:56:37.508Z,0
2024-04-13T00:57:37.631Z,0
2024-04-13T00:58:37.755Z,0
2024-04-13T00:59:40.864Z,0
2024-04-13T01:00:38.106Z,0
2024-04-13T01:01:38.131Z,0
2024-04-13T01:02:38.237Z,0
2024-04-13T01:03:38.497Z,0
2024-04-13T01:04:38.473Z,0
2024-04-13T01:05:38.573Z,0
2024-04-13T01:06:38.745Z,0
2024-04-13T01:07:38.874Z,0
2024-04-13T01:08:39.021Z,0
2024-04-13T01:09:39.136Z,0
2024-04-13T01:10:39.227Z,0
2024-04-13T01:11:39.396Z,0
2024-04-13T01:12:39.562Z,0
2024-04-13T01:13:39.630Z,0
2024-04-13T01:14:39.785Z,0
2024-04-13T01:15:39.979Z,0
2024-04-13T01:16:40.155Z,0
2024-04-13T01:17:40.314Z,0
2024-04-13T01:18:40.325Z,0
2024-04-13T01:19:40.465Z,0
2024-04-13T01:20:40.602Z,0
2024-04-13T01:21:40.731Z,0
2024-04-13T01:22:40.804Z,0
2024-04-13T01:23:40.906Z,0
2024-04-13T01:24:41.034Z,0
2024-04-13T01:25:41.111Z,0
2024-04-13T01:26:41.212Z,0
2024-04-13T01:27:41.309Z,0
2024-04-13T01:28:41.456Z,0
2024-04-13T01:29:41.564Z,0
2024-04-13T01:30:41.696Z,0
2024-04-13T01:31:41.820Z,0
2024-04-13T01:32:41.971Z,0
2024-04-13T01:33:42.087Z,0
2024-04-13T01:34:42.194Z,0
2024-04-13T01:35:42.330Z,0
2024-04-13T01:36:42.455Z,0
2024-04-13T01:37:42.538Z,0
2024-04-13T01:38:42.627Z,0
2024-04-13T01:39:42.800Z,0
2024-04-13T01:40:42.832Z,0
2024-04-13T01:41:42.941Z,0
2024-04-13T01:42:43.095Z,0
2024-04-13T01:43:43.191Z,0
2024-04-13T01:44:43.341Z,0
2024-04-13T01:45:43.470Z,0
2024-04-13T01:46:43.587Z,0
2024-04-13T01:47:43.795Z,0
2024-04-13T01:48:43.930Z,0
2024-04-13T01:49:43.998Z,0
2024-04-13T01:50:44.104Z,0
2024-04-13T01:51:44.250Z,0
2024-04-13T01:52:44.401Z,0
2024-04-13T01:53:44.504Z,0
2024-04-13T01:54:44.604Z,0
2024-04-13T01:55:44.756Z,0
2024-04-13T01:56:44.914Z,0
2024-04-13T01:57:45.012Z,0
2024-04-13T01:58:45.161Z,0
2024-04-13T01:59:45.312Z,0
2024-04-13T02:00:45.459Z,0
2024-04-13T02:01:45.552Z,0
2024-04-13T02:02:45.708Z,0
2024-04-13T02:03:45.823Z,0
2024-04-13T02:04:45.899Z,0
2024-04-13T02:05:45.979Z,0
2024-04-13T02:06:46.159Z,0
2024-04-13T02:07:46.187Z,0
2024-04-13T02:08:46.350Z,0
2024-04-13T02:09:46.426Z,0
2024-04-13T02:10:46.592Z,0
2024-04-13T02:11:46.681Z,0
2024-04-13T02:12:46.786Z,0
2024-04-13T02:13:46.894Z,0
2024-04-13T02:14:47.003Z,0
2024-04-13T02:15:47.095Z,0
2024-04-13T02:16:47.196Z,0
2024-04-13T02:17:47.415Z,0
2024-04-13T02:18:47.527Z,0
2024-04-13T02:19:47.606Z,0
2024-04-13T02:20:47.750Z,0
2024-04-13T02:21:47.906Z,0
2024-04-13T02:22:48.056Z,0
2024-04-13T02:23:48.157Z,0
2024-04-13T02:24:48.310Z,0
2024-04-13T02:25:48.432Z,0
2024-04-13T02:26:48.516Z,0
2024-04-13T02:27:48.620Z,0
2024-04-13T02:28:48.722Z,0
2024-04-13T02:29:48.819Z,0
2024-04-13T02:30:48.974Z,0
2024-04-13T02:31:49.139Z,0
2024-04-13T02:32:49.460Z,0
2024-04-13T02:33:49.458Z,0
2024-04-13T02:34:49.537Z,0
2024-04-13T02:35:49.633Z,0
2024-04-13T02:36:49.731Z,0
2024-04-13T02:37:49.883Z,0
2024-04-13T02:38:50.001Z,0
2024-04-13T02:39:50.084Z,0
2024-04-13T02:40:50.186Z,0
2024-04-13T02:41:50.342Z,0
2024-04-13T02:42:50.441Z,0
2024-04-13T02:43:50.594Z,0
2024-04-13T02:44:50.695Z,0
2024-04-13T02:45:50.798Z,0
2024-04-13T02:46:50.900Z,0
2024-04-13T02:47:51.084Z,0
2024-04-13T02:48:51.156Z,0
2024-04-13T02:49:51.252Z,0
2024-04-13T02:50:51.359Z,0
2024-04-13T02:51:51.461Z,0
2024-04-13T02:52:51.605Z,0
2024-04-13T02:53:51.723Z,0
2024-04-13T02:54:51.809Z,0
2024-04-13T02:55:51.961Z,0
2024-04-13T02:56:52.111Z,0
2024-04-13T02:57:52.272Z,0
2024-04-13T02:58:52.399Z,0
2024-04-13T02:59:52.526Z,0
2024-04-13T03:00:52.645Z,0
2024-04-13T03:01:52.776Z,0
2024-04-13T03:02:52.977Z,0
2024-04-13T03:03:53.063Z,0
2024-04-13T03:04:53.179Z,0
2024-04-13T03:05:53.286Z,0
2024-04-13T03:06:53.378Z,0
2024-04-13T03:07:53.481Z,0
2024-04-13T03:08:53.641Z,0
2024-04-13T03:09:53.736Z,0
2024-04-13T03:10:53.849Z,0
2024-04-13T03:11:53.935Z,0
2024-04-13T03:12:54.044Z,0
2024-04-13T03:13:54.147Z,0
2024-04-13T03:14:54.242Z,0
2024-04-13T03:15:54.347Z,0
2024-04-13T03:16:54.466Z,0
2024-04-13T03:17:54.624Z,0
2024-04-13T03:18:54.797Z,0
2024-04-13T03:19:54.860Z,0
2024-04-13T03:20:54.956Z,0
2024-04-13T03:21:55.123Z,0
2024-04-13T03:22:55.213Z,0
2024-04-13T03:23:55.317Z,0
2024-04-13T03:24:55.466Z,0
2024-04-13T03:25:55.613Z,0
2024-04-13T03:26:55.770Z,0
2024-04-13T03:27:55.919Z,0
2024-04-13T03:28:56.023Z,0
2024-04-13T03:29:56.124Z,0
2024-04-13T03:30:56.227Z,0
2024-04-13T03:31:56.329Z,0
2024-04-13T03:32:56.482Z,0
2024-04-13T03:33:56.656Z,0
2024-04-13T03:34:56.792Z,0
2024-04-13T03:35:56.879Z,0
2024-04-13T03:36:57.034Z,0
2024-04-13T03:37:57.189Z,0
2024-04-13T03:38:57.335Z,0
2024-04-13T03:39:57.444Z,0
2024-04-13T03:40:57.541Z,2
2024-04-13T03:41:57.668Z,2
2024-04-13T03:42:57.794Z,2
2024-04-13T03:43:57.950Z,2
2024-04-13T03:44:58.056Z,2
2024-04-13T03:45:58.148Z,3.04
2024-04-13T03:46:58.253Z,3.04
2024-04-13T03:47:58.510Z,3.04
2024-04-13T03:48:58.474Z,4
2024-04-13T03:49:58.562Z,4
2024-04-13T03:50:58.718Z,5.04
2024-04-13T03:51:58.811Z,6
2024-04-13T03:52:58.958Z,7.04
2024-04-13T03:53:59.069Z,8
2024-04-13T03:54:59.166Z,10
2024-04-13T03:55:59.265Z,12
2024-04-13T03:56:59.414Z,14
2024-04-13T03:57:59.521Z,17.04
2024-04-13T03:58:59.675Z,19.04
2024-04-13T03:59:59.779Z,22
2024-04-13T04:00:59.919Z,26
2024-04-13T04:02:00.022Z,30
2024-04-13T04:03:00.092Z,35.04
2024-04-13T04:04:00.268Z,41.04
2024-04-13T04:05:00.339Z,46
2024-04-13T04:06:00.487Z,52
2024-04-13T04:07:00.598Z,60
2024-04-13T04:08:00.686Z,69.04
2024-04-13T04:09:00.791Z,83.04
2024-04-13T04:10:00.893Z,99.04
2024-04-13T04:11:01.061Z,120
2024-04-13T04:12:01.228Z,130
2024-04-13T04:13:01.350Z,140
2024-04-13T04:14:01.495Z,160
2024-04-13T04:15:01.672Z,160
2024-04-13T04:16:01.783Z,170.08
2024-04-13T04:17:01.862Z,190.08
2024-04-13T04:18:02.039Z,200
2024-04-13T04:19:02.299Z,220
2024-04-13T04:20:02.269Z,230.08
2024-04-13T04:21:02.410Z,250.08
2024-04-13T04:22:02.519Z,270.08
2024-04-13T04:23:02.685Z,290.08
2024-04-13T04:24:02.765Z,310.08
2024-04-13T04:25:02.862Z,330.24
2024-04-13T04:26:02.975Z,350.08
2024-04-13T04:27:03.079Z,370.24
2024-04-13T04:28:03.170Z,400
2024-04-13T04:29:03.275Z,430.08
2024-04-13T04:30:03.377Z,460.16
2024-04-13T04:31:03.476Z,490.24
2024-04-13T04:32:03.628Z,540.16
2024-04-13T04:33:03.789Z,570.24
2024-04-13T04:34:03.961Z,610.24
2024-04-13T04:35:03.982Z,650.24
2024-04-13T04:36:04.092Z,700.16
2024-04-13T04:37:04.180Z,740.48
2024-04-13T04:38:04.289Z,790.4
2024-04-13T04:39:04.387Z,840.32
2024-04-13T04:40:04.553Z,900.48
2024-04-13T04:41:04.642Z,960
2024-04-13T04:42:04.777Z,1050.24
2024-04-13T04:43:04.894Z,1100.16
2024-04-13T04:44:04.999Z,1150.08
2024-04-13T04:45:05.216Z,1250.56
2024-04-13T04:46:05.300Z,1300.48
2024-04-13T04:47:05.410Z,1300.48
2024-04-13T04:48:05.747Z,1400.32
2024-04-13T04:49:05.686Z,1400.32
2024-04-13T04:50:05.844Z,1500.16
2024-04-13T04:51:05.943Z,1600
2024-04-13T04:52:06.029Z,1600
2024-04-13T04:53:06.117Z,1701.12
2024-04-13T04:54:06.249Z,1800.96
2024-04-13T04:55:06.366Z,1800.96
2024-04-13T04:56:06.468Z,1900.8
2024-04-13T04:57:06.614Z,1900.8
2024-04-13T04:58:06.676Z,2000.64
2024-04-13T04:59:06.786Z,2000.64
2024-04-13T05:00:06.914Z,2100.48
2024-04-13T05:01:06.987Z,2200.32
2024-04-13T05:02:07.154Z,2300.16
2024-04-13T05:03:07.319Z,2300.16
2024-04-13T05:04:07.471Z,2400
2024-04-13T05:05:07.487Z,2400
2024-04-13T05:06:07.744Z,2501.12
2024-04-13T05:07:07.695Z,2600.96
2024-04-13T05:08:07.790Z,2600.96
2024-04-13T05:09:07.984Z,2700.8
2024-04-13T05:10:08.053Z,2800.64
2024-04-13T05:11:08.236Z,2900.48
2024-04-13T05:12:08.383Z,3000.32
2024-04-13T05:13:08.458Z,3100.16
2024-04-13T05:14:10.216Z,3200
2024-04-13T05:16:08.851Z,3302.4
2024-04-13T05:17:08.983Z,3402.24
2024-04-13T05:18:09.293Z,3502.08
2024-04-13T05:19:09.350Z,3502.08
2024-04-13T05:20:09.313Z,3601.92
2024-04-13T05:21:09.457Z,3701.76
2024-04-13T05:22:09.528Z,3901.44
2024-04-13T05:23:09.676Z,4001.28
2024-04-13T05:24:09.793Z,4200.96
2024-04-13T05:25:09.881Z,4200.96
2024-04-13T05:26:09.973Z,4200.96
2024-04-13T05:27:10.138Z,4300.8
2024-04-13T05:28:10.236Z,4400.64
2024-04-13T05:29:10.334Z,4600.32
2024-04-13T05:30:10.504Z,4700.16
2024-04-13T05:31:10.814Z,4600.32
2024-04-13T05:32:10.691Z,4600.32
2024-04-13T05:33:10.863Z,4700.16
2024-04-13T05:34:10.991Z,4700.16
2024-04-13T05:35:11.085Z,4902.4
2024-04-13T05:36:11.222Z,4902.4
2024-04-13T05:37:11.296Z,5002.24
2024-04-13T05:38:11.393Z,5002.24
2024-04-13T05:39:11.526Z,5002.24
2024-04-13T05:40:11.648Z,5002.24
2024-04-13T05:41:11.752Z,5002.24
2024-04-13T05:42:11.905Z,5102.08
2024-04-13T05:43:13.271Z,5201.92
2024-04-13T05:45:12.436Z,5401.6
2024-04-13T05:46:12.466Z,5504
2024-04-13T05:47:12.563Z,5601.28
2024-04-13T05:48:12.721Z,5703.68
2024-04-13T05:49:12.822Z,5800.96
2024-04-13T05:50:12.926Z,6000.64
2024-04-13T05:51:13.034Z,6200.32
2024-04-13T05:52:13.166Z,6604.8
2024-04-13T05:53:13.279Z,6901.76
2024-04-13T05:54:13.447Z,7403.52
2024-04-13T05:55:13.574Z,7603.2
2024-04-13T05:56:13.729Z,7700.48
2024-04-13T05:57:13.832Z,7500.8
2024-04-13T05:58:14.276Z,7603.2
2024-04-13T06:00:14.258Z,7802.88
2024-04-13T06:01:14.342Z,7802.88
2024-04-13T06:02:14.486Z,7700.48
2024-04-13T06:03:14.662Z,7700.48
2024-04-13T06:04:14.843Z,7900.16
2024-04-13T06:05:14.897Z,7900.16
2024-04-13T06:06:15.015Z,7802.88
2024-04-13T06:07:15.153Z,7802.88
2024-04-13T06:08:15.259Z,7500.8
2024-04-13T06:09:15.432Z,7301.12
2024-04-13T06:10:15.511Z,7403.52
2024-04-13T06:11:15.673Z,7301.12
2024-04-13T06:12:15.758Z,7203.84
2024-04-13T06:13:15.859Z,7203.84
2024-04-13T06:14:15.984Z,7004.16
2024-04-13T06:15:16.127Z,7101.44
2024-04-13T06:16:16.278Z,6901.76
2024-04-13T06:17:16.380Z,6604.8
2024-04-13T06:18:16.590Z,6502.4
2024-04-13T06:19:16.620Z,6302.72
2024-04-13T06:20:16.716Z,6200.32
2024-04-13T06:21:16.831Z,6400
2024-04-13T06:22:16.970Z,6502.4
2024-04-13T06:23:17.123Z,6702.08
2024-04-13T06:24:17.237Z,6702.08
2024-04-13T06:25:17.380Z,6702.08
2024-04-13T06:26:17.473Z,6604.8
2024-04-13T06:27:17.605Z,6400
2024-04-13T06:28:17.696Z,6400
2024-04-13T06:29:17.830Z,6400
2024-04-13T06:30:18.054Z,6702.08
2024-04-13T06:31:18.136Z,7301.12
2024-04-13T06:32:18.238Z,8504.319
2024-04-13T06:33:18.406Z,9103.359
2024-04-13T06:34:18.496Z,9303.04
2024-04-13T06:35:18.542Z,9702.399
2024-04-13T06:36:18.708Z,9804.8
2024-04-13T06:37:18.797Z,8304.64
2024-04-13T06:38:18.898Z,7900.16
2024-04-13T06:39:19.015Z,7203.84
2024-04-13T06:40:19.150Z,7900.16
2024-04-13T06:41:19.312Z,7900.16
2024-04-13T06:42:20.877Z,7500.8
2024-04-13T06:43:19.556Z,7403.52
2024-04-13T06:44:19.655Z,7603.2
2024-04-13T06:45:19.767Z,7900.16
2024-04-13T06:46:19.920Z,8601.6
2024-04-13T06:47:20.024Z,11407.359
2024-04-13T06:48:20.176Z,12800
2024-04-13T06:49:20.318Z,13301.76
2024-04-13T06:50:20.423Z,12707.84
2024-04-13T06:51:20.590Z,14602.239
2024-04-13T06:52:20.622Z,14807.04
2024-04-13T06:53:20.724Z,15400.96
2024-04-13T06:54:20.868Z,15800.319
2024-04-13T06:55:20.928Z,16404.48
2024-04-13T06:56:21.056Z,16404.48
2024-04-13T06:57:21.179Z,16701.44
2024-04-13T06:58:21.283Z,16107.52
2024-04-13T06:59:21.391Z,16302.08
2024-04-13T07:00:21.562Z,16906.24
2024-04-13T07:01:21.603Z,17909.76
2024-04-13T07:02:21.735Z,18503.68
2024-04-13T07:03:21.979Z,17203.2
2024-04-13T07:04:22.063Z,17203.2
2024-04-13T07:05:22.102Z,13506.56
2024-04-13T07:06:22.214Z,11704.319
2024-04-13T07:07:22.307Z,11100.16
2024-04-13T07:08:22.400Z,9902.08
2024-04-13T07:09:22.573Z,9303.04
2024-04-13T07:10:22.652Z,9303.04
2024-04-13T07:11:22.769Z,10403.84
2024-04-13T07:12:22.869Z,10403.84
2024-04-13T07:13:23.007Z,9303.04
2024-04-13T07:14:23.117Z,10905.6
2024-04-13T07:15:23.299Z,11008
2024-04-13T07:16:23.453Z,11100.16
2024-04-13T07:17:23.519Z,9200.64
2024-04-13T07:18:23.681Z,8104.96
2024-04-13T07:19:23.773Z,8304.64
2024-04-13T07:20:23.873Z,8504.319
2024-04-13T07:21:24.018Z,11202.56
2024-04-13T07:22:24.073Z,10204.16
2024-04-13T07:23:24.175Z,12902.399
2024-04-13T07:24:24.358Z,16609.28
2024-04-13T07:25:24.434Z,18001.92
2024-04-13T07:26:24.530Z,20008.96
2024-04-13T07:27:24.722Z,21504
2024-04-13T07:28:24.786Z,22016
2024-04-13T07:29:24.885Z,22507.52
2024-04-13T07:30:24.998Z,15308.8
2024-04-13T07:31:25.115Z,13701.12
2024-04-13T07:32:25.340Z,12206.08
2024-04-13T07:33:25.433Z,11909.12
2024-04-13T07:34:25.446Z,11601.92
2024-04-13T07:35:25.593Z,14807.04
2024-04-13T07:36:25.741Z,11202.56
2024-04-13T07:37:25.847Z,10803.2
2024-04-13T07:38:26.029Z,10905.6
2024-04-13T07:39:26.136Z,13506.56
2024-04-13T07:40:26.252Z,14510.08
2024-04-13T07:41:26.364Z,14407.68
2024-04-13T07:42:26.534Z,13701.12
2024-04-13T07:43:26.660Z,12902.399
2024-04-13T07:44:26.810Z,8903.68
2024-04-13T07:45:26.919Z,13107.199
2024-04-13T07:46:27.012Z,14100.479
2024-04-13T07:47:27.152Z,14704.64
2024-04-13T07:48:27.321Z,13803.52
2024-04-13T07:49:27.320Z,12605.439
2024-04-13T07:50:27.421Z,13905.92
2024-04-13T07:51:27.581Z,13608.96
2024-04-13T07:52:27.678Z,13209.6
2024-04-13T07:53:27.830Z,12503.04
2024-04-13T07:54:27.959Z,11909.12
2024-04-13T07:55:28.047Z,11806.72
2024-04-13T07:56:28.209Z,11509.76
2024-04-13T07:57:28.290Z,12902.399
2024-04-13T07:58:28.385Z,15605.76
2024-04-13T07:59:28.491Z,16107.52
2024-04-13T08:00:28.668Z,15308.8
2024-04-13T08:01:28.769Z,17100.8
2024-04-13T08:02:28.851Z,17008.64
2024-04-13T08:03:28.979Z,17203.2
2024-04-13T08:04:29.128Z,17500.16
2024-04-13T08:05:29.233Z,16701.44
2024-04-13T08:06:29.388Z,16302.08
2024-04-13T08:07:29.500Z,15708.159
2024-04-13T08:08:29.615Z,13803.52
2024-04-13T08:09:29.744Z,12206.08
2024-04-13T08:10:29.854Z,11407.359
2024-04-13T08:11:29.959Z,16005.12
2024-04-13T08:12:30.117Z,16906.24
2024-04-13T08:13:30.175Z,17100.8
2024-04-13T08:14:30.319Z,17008.64
2024-04-13T08:15:30.492Z,17100.8
2024-04-13T08:16:30.646Z,17100.8
2024-04-13T08:17:30.773Z,17100.8
2024-04-13T08:18:30.949Z,16609.28
2024-04-13T08:19:31.008Z,16107.52
2024-04-13T08:20:31.175Z,16209.92
2024-04-13T08:21:31.302Z,16609.28
2024-04-13T08:22:31.387Z,16506.88
2024-04-13T08:23:31.531Z,16506.88
2024-04-13T08:24:31.716Z,15708.159
2024-04-13T08:25:31.844Z,16005.12
2024-04-13T08:26:31.935Z,15503.359
2024-04-13T08:27:33.435Z,15503.359
2024-04-13T08:29:32.340Z,15400.96
2024-04-13T08:30:32.549Z,16302.08
2024-04-13T08:31:32.677Z,16302.08
2024-04-13T08:32:32.841Z,16209.92
2024-04-13T08:33:32.922Z,16107.52
2024-04-13T08:34:33.055Z,17203.2
2024-04-13T08:35:33.148Z,16701.44
2024-04-13T08:36:33.337Z,17203.2
2024-04-13T08:37:33.451Z,18206.72
2024-04-13T08:38:33.581Z,18401.28
2024-04-13T08:39:33.710Z,17602.56
2024-04-13T08:40:33.813Z,17704.96
2024-04-13T08:41:33.910Z,18001.92
2024-04-13T08:42:34.098Z,18503.68
2024-04-13T08:43:34.166Z,18800.64
2024-04-13T08:44:34.322Z,18206.72
2024-04-13T08:45:34.619Z,18206.72
2024-04-13T08:46:34.571Z,17602.56
2024-04-13T08:47:34.709Z,17602.56
2024-04-13T08:48:34.909Z,18401.28
2024-04-13T08:49:34.977Z,18206.72
2024-04-13T08:50:35.082Z,18309.12
2024-04-13T08:51:35.237Z,18503.68
2024-04-13T08:52:35.336Z,18708.48
2024-04-13T08:53:35.435Z,18309.12
2024-04-13T08:54:35.663Z,18309.12
2024-04-13T08:55:35.738Z,18503.68
2024-04-13T08:56:35.888Z,19005.44
2024-04-13T08:57:36.032Z,19200
2024-04-13T08:58:36.093Z,18903.04
2024-04-13T08:59:36.194Z,18606.08
2024-04-13T09:00:36.338Z,18800.64
2024-04-13T09:01:36.497Z,18401.28
2024-04-13T09:02:36.501Z,18708.48
2024-04-13T09:03:36.774Z,18708.48
2024-04-13T09:04:36.817Z,18800.64
2024-04-13T09:05:36.899Z,19200
2024-04-13T09:06:37.152Z,19404.8
2024-04-13T09:07:37.159Z,16701.44
2024-04-13T09:08:37.311Z,12308.479
2024-04-13T09:09:37.431Z,18503.68
2024-04-13T09:10:37.562Z,12707.84
2024-04-13T09:11:37.698Z,12800
2024-04-13T09:12:37.804Z,20500.48
2024-04-13T09:13:40.182Z,19804.16
2024-04-13T09:14:37.967Z,21504
2024-04-13T09:15:38.082Z,21012.48
2024-04-13T09:16:38.225Z,21012.48
2024-04-13T09:17:38.407Z,20500.48
2024-04-13T09:18:38.568Z,19404.8
2024-04-13T09:19:38.531Z,20008.96
2024-04-13T09:20:38.626Z,20008.96
2024-04-13T09:21:38.750Z,21012.48
2024-04-13T09:22:38.832Z,22016
2024-04-13T09:23:38.990Z,22507.52
2024-04-13T09:24:39.092Z,22507.52
2024-04-13T09:25:39.235Z,22016
2024-04-13T09:26:39.343Z,22507.52
2024-04-13T09:27:39.447Z,23019.52
2024-04-13T09:28:39.565Z,22507.52
2024-04-13T09:29:39.691Z,23019.52
2024-04-13T09:30:39.855Z,24002.56
2024-04-13T09:31:39.952Z,25006.08
2024-04-13T09:32:40.547Z,25006.08
2024-04-13T09:34:40.351Z,24002.56
2024-04-13T09:35:40.465Z,13608.96
2024-04-13T09:36:40.641Z,13107.199
2024-04-13T09:37:40.719Z,19302.4
2024-04-13T09:38:40.812Z,18206.72
2024-04-13T09:39:40.944Z,17008.64
2024-04-13T09:40:41.014Z,20008.96
2024-04-13T09:41:41.159Z,11100.16
2024-04-13T09:42:41.268Z,12103.68
2024-04-13T09:43:41.418Z,19507.2
2024-04-13T09:44:41.553Z,19200
2024-04-13T09:45:41.723Z,15001.6
2024-04-13T09:46:41.772Z,19906.56
2024-04-13T09:47:41.970Z,15800.319
2024-04-13T09:48:42.067Z,14305.279
2024-04-13T09:49:42.182Z,10608.64
2024-04-13T09:50:42.279Z,19507.2
2024-04-13T09:51:42.473Z,19906.56
2024-04-13T09:52:42.528Z,19302.4
2024-04-13T09:53:42.686Z,19804.16
2024-04-13T09:54:42.853Z,20008.96
2024-04-13T09:55:42.937Z,18606.08
2024-04-13T09:56:43.038Z,19200
2024-04-13T09:57:43.196Z,18503.68
2024-04-13T09:58:43.262Z,20008.96
2024-04-13T09:59:43.350Z,20500.48
2024-04-13T10:00:43.623Z,21012.48
2024-04-13T10:01:43.960Z,21504
2024-04-13T10:03:43.831Z,21504
2024-04-13T10:04:43.905Z,22507.52
2024-04-13T10:05:44.013Z,23511.04
2024-04-13T10:06:44.153Z,22507.52
2024-04-13T10:07:44.262Z,21012.48
2024-04-13T10:08:44.422Z,21504
2024-04-13T10:09:44.553Z,22507.52
2024-04-13T10:10:44.665Z,22507.52
2024-04-13T10:11:44.765Z,22016
2024-04-13T10:12:44.961Z,22507.52
2024-04-13T10:13:45.020Z,22016
2024-04-13T10:14:45.127Z,22016
2024-04-13T10:15:45.307Z,22016
2024-04-13T10:16:45.822Z,22016
2024-04-13T10:18:45.693Z,21504
2024-04-13T10:19:45.747Z,23019.52
2024-04-13T10:20:45.888Z,22507.52
2024-04-13T10:21:46.018Z,22016
2024-04-13T10:22:46.137Z,23019.52
2024-04-13T10:23:46.791Z,23019.52
2024-04-13T10:25:46.491Z,22507.52
2024-04-13T10:26:46.591Z,23019.52
2024-04-13T10:27:46.741Z,23511.04
2024-04-13T10:28:46.799Z,23019.52
2024-04-13T10:29:46.952Z,23019.52
2024-04-13T10:30:49.089Z,23019.52
2024-04-13T10:31:47.227Z,23019.52
2024-04-13T10:32:47.426Z,23019.52
2024-04-13T10:33:47.548Z,22507.52
2024-04-13T10:34:47.615Z,21012.48
2024-04-13T10:35:47.710Z,21012.48
2024-04-13T10:36:50.356Z,20500.48
2024-04-13T10:37:48.013Z,19507.2
2024-04-13T10:38:48.181Z,20500.48
2024-04-13T10:39:48.320Z,21012.48
2024-04-13T10:40:48.473Z,20008.96
2024-04-13T10:41:48.573Z,19609.6
2024-04-13T10:42:51.527Z,20500.48
2024-04-13T10:43:48.824Z,20500.48
2024-04-13T10:44:48.924Z,20500.48
2024-04-13T10:45:49.223Z,20008.96
2024-04-13T10:46:49.177Z,20008.96
2024-04-13T10:47:49.433Z,19200
2024-04-13T10:49:54.688Z,19804.16
2024-04-13T10:50:49.690Z,19701.76
2024-04-13T10:51:49.808Z,19507.2
2024-04-13T10:52:49.887Z,16701.44
2024-04-13T10:53:49.988Z,21012.48
2024-04-13T10:54:50.154Z,15400.96
2024-04-13T10:55:50.254Z,14305.279
2024-04-13T10:56:52.529Z,19404.8
2024-04-13T10:57:50.772Z,15800.319
2024-04-13T10:58:50.722Z,19302.4
2024-04-13T10:59:50.810Z,20500.48
2024-04-13T11:00:51.025Z,19701.76
2024-04-13T11:01:51.053Z,19404.8
2024-04-13T11:02:51.225Z,18309.12
2024-04-13T11:03:51.402Z,15206.399
2024-04-13T11:04:51.472Z,12503.04
2024-04-13T11:05:51.626Z,18309.12
2024-04-13T11:06:51.834Z,18503.68
2024-04-13T11:07:51.874Z,18800.64
2024-04-13T11:08:52.019Z,18708.48
2024-04-13T11:09:52.200Z,19804.16
2024-04-13T11:10:52.285Z,13004.8
2024-04-13T11:11:52.419Z,12206.08
2024-04-13T11:12:52.639Z,13608.96
2024-04-13T11:13:52.689Z,12001.279
2024-04-13T11:14:52.781Z,11601.92
2024-04-13T11:16:53.030Z,19609.6
2024-04-13T11:17:53.171Z,19200
2024-04-13T11:18:53.451Z,18800.64
2024-04-13T11:19:53.414Z,18708.48
2024-04-13T11:20:53.502Z,18206.72
2024-04-13T11:21:53.673Z,18503.68
2024-04-13T11:22:53.738Z,19005.44
2024-04-13T11:23:53.841Z,18503.68
2024-04-13T11:24:54.022Z,19107.84
2024-04-13T11:25:54.101Z,19701.76
2024-04-13T11:26:54.196Z,19804.16
2024-04-13T11:27:54.381Z,19200
2024-04-13T11:28:54.462Z,19005.44
2024-04-13T11:29:54.599Z,19507.2
2024-04-13T11:30:56.628Z,19804.16
2024-04-13T11:31:54.916Z,15902.72
2024-04-13T11:32:55.031Z,13905.92
2024-04-13T11:33:55.223Z,19701.76
2024-04-13T11:34:55.331Z,19609.6
2024-04-13T11:35:55.465Z,19200
2024-04-13T11:37:55.766Z,19609.6
2024-04-13T11:38:55.892Z,19005.44
2024-04-13T11:39:56.043Z,20500.48
2024-04-13T11:40:56.165Z,19804.16
2024-04-13T11:41:56.275Z,18503.68
2024-04-13T11:42:58.062Z,18606.08
2024-04-13T11:43:56.579Z,19200
2024-04-13T11:44:56.720Z,19200
2024-04-13T11:45:56.925Z,18401.28
2024-04-13T11:46:56.978Z,19906.56
2024-04-13T11:47:57.135Z,19507.2
2024-04-13T11:48:57.344Z,19005.44
2024-04-13T11:49:57.387Z,19804.16
2024-04-13T11:50:57.499Z,21012.48
2024-04-13T11:51:57.640Z,20500.48
2024-04-13T11:52:57.803Z,19906.56
2024-04-13T11:53:57.959Z,19005.44
2024-04-13T11:54:58.117Z,18606.08
2024-04-13T11:55:58.200Z,19804.16
2024-04-13T11:56:58.295Z,20008.96
2024-04-13T11:57:58.477Z,19005.44
2024-04-13T11:58:58.602Z,19507.2
2024-04-13T11:59:59.654Z,19507.2
2024-04-13T12:00:58.889Z,19701.76
2024-04-13T12:01:59.022Z,19507.2
2024-04-13T12:02:59.179Z,19404.8
2024-04-13T12:03:59.293Z,19005.44
2024-04-13T12:04:59.426Z,19302.4
2024-04-13T12:06:01.582Z,19200
2024-04-13T12:06:59.715Z,19005.44
2024-04-13T12:07:59.866Z,17909.76
2024-04-13T12:08:59.972Z,18708.48
2024-04-13T12:10:00.141Z,19005.44
2024-04-13T12:11:00.302Z,18401.28
2024-04-13T12:12:02.301Z,17500.16
2024-04-13T12:13:00.574Z,17408
2024-04-13T12:14:00.639Z,17008.64
2024-04-13T12:15:00.732Z,16302.08
2024-04-13T12:16:00.961Z,15708.159
2024-04-13T12:17:00.986Z,17100.8
2024-04-13T12:18:01.150Z,16506.88
2024-04-13T12:19:01.251Z,17100.8
2024-04-13T12:21:01.495Z,17408
2024-04-13T12:22:01.641Z,17602.56
2024-04-13T12:23:01.799Z,17807.36
2024-04-13T12:24:02.155Z,17500.16
2024-04-13T12:25:02.149Z,16906.24
2024-04-13T12:26:02.199Z,16005.12
2024-04-13T12:27:02.348Z,17305.6
2024-04-13T12:28:02.455Z,17408
2024-04-13T12:29:02.618Z,17305.6
2024-04-13T12:30:02.771Z,16701.44
2024-04-13T12:31:02.912Z,16404.48
2024-04-13T12:32:03.041Z,17305.6
2024-04-13T12:33:03.189Z,17602.56
2024-04-13T12:34:03.250Z,17408
2024-04-13T12:35:03.317Z,17305.6
2024-04-13T12:36:03.527Z,17008.64
2024-04-13T12:37:03.574Z,17305.6
2024-04-13T12:38:03.717Z,17602.56
2024-04-13T12:39:03.861Z,17909.76
2024-04-13T12:40:03.982Z,16906.24
2024-04-13T12:41:04.127Z,17305.6
2024-04-13T12:42:04.275Z,17203.2
2024-04-13T12:43:04.375Z,17008.64
2024-04-13T12:44:04.486Z,16906.24
2024-04-13T12:45:04.650Z,16404.48
2024-04-13T12:46:04.787Z,16609.28
2024-04-13T12:47:05.939Z,16609.28
2024-04-13T12:48:05.288Z,17807.36
2024-04-13T12:49:05.341Z,17203.2
2024-04-13T12:50:05.407Z,16803.84
2024-04-13T12:51:05.573Z,16906.24
2024-04-13T12:52:05.709Z,17008.64
2024-04-13T12:53:05.800Z,16701.44
2024-04-13T12:54:05.926Z,17500.16
2024-04-13T12:55:06.043Z,16906.24
2024-04-13T12:56:06.201Z,18206.72
2024-04-13T12:57:06.368Z,18800.64
2024-04-13T12:58:06.509Z,18001.92
2024-04-13T12:59:06.612Z,18206.72